createdAt,value
2019-01-28T00:00:36.884Z,24.83
2019-01-28T00:03:08.848Z,25.47
2019-01-28T00:05:38.600Z,26.40
2019-01-28T00:08:08.410Z,26.70
2019-01-28T00:10:38.185Z,26.80
2019-01-28T00:13:08.017Z,29.27
2019-01-28T00:15:37.914Z,29.77
2019-01-28T00:18:07.630Z,29.33
2019-01-28T00:20:37.325Z,26.97
2019-01-28T00:23:07.183Z,25.27
2019-01-28T00:25:36.988Z,25.80
2019-01-28T00:28:06.676Z,26.50
2019-01-28T00:30:36.072Z,26.57
2019-01-28T00:33:05.961Z,26.63
2019-01-28T00:35:35.714Z,27.50
2019-01-28T00:38:05.418Z,26.07
2019-01-28T00:40:34.822Z,27.70
2019-01-28T00:43:04.649Z,28.20
2019-01-28T00:45:34.456Z,25.97
2019-01-28T00:48:04.267Z,26.57
2019-01-28T00:50:34.063Z,26.67
2019-01-28T00:53:03.672Z,28.23
2019-01-28T00:55:33.332Z,27.47
2019-01-28T00:58:03.223Z,28.00
2019-01-28T01:00:33.620Z,31.77
2019-01-28T01:03:03.018Z,30.37
2019-01-28T01:05:32.516Z,34.23
2019-01-28T01:08:02.312Z,32.77
2019-01-28T01:10:32.151Z,32.23
2019-01-28T01:13:01.877Z,30.47
2019-01-28T01:15:31.266Z,31.80
2019-01-28T01:18:00.762Z,31.60
2019-01-28T01:20:30.407Z,31.27
2019-01-28T01:22:59.981Z,31.30
2019-01-28T01:25:29.688Z,29.97
2019-01-28T01:27:59.434Z,30.60
2019-01-28T01:30:29.111Z,31.80
2019-01-28T01:32:59.087Z,33.80
2019-01-28T01:35:28.832Z,33.17
2019-01-28T01:37:58.748Z,31.83
2019-01-28T01:40:28.529Z,31.43
2019-01-28T01:42:58.212Z,31.57
2019-01-28T01:45:28.073Z,28.97
2019-01-28T01:47:57.893Z,28.33
2019-01-28T01:50:27.564Z,28.90
2019-01-28T01:52:57.324Z,30.57
2019-01-28T01:55:26.845Z,31.23
2019-01-28T01:57:56.611Z,31.03
2019-01-28T02:00:26.327Z,28.30
2019-01-28T02:02:56.219Z,29.30
2019-01-28T02:05:25.736Z,26.80
2019-01-28T02:07:55.153Z,29.37
2019-01-28T02:10:24.856Z,27.20
2019-01-28T02:12:54.559Z,27.03
2019-01-28T02:15:24.285Z,28.27
2019-01-28T02:17:54.124Z,28.53
2019-01-28T02:20:23.639Z,27.97
2019-01-28T02:22:53.204Z,29.63
2019-01-28T02:25:22.597Z,27.27
2019-01-28T02:27:52.344Z,27.80
2019-01-28T02:30:21.927Z,28.00
2019-01-28T02:32:51.343Z,29.90
2019-01-28T02:35:20.748Z,30.23
2019-01-28T02:37:50.376Z,30.37
2019-01-28T02:40:20.255Z,29.37
2019-01-28T02:42:50.007Z,29.70
2019-01-28T02:45:19.776Z,30.20
2019-01-28T02:47:49.395Z,30.90
2019-01-28T02:50:19.496Z,29.03
2019-01-28T02:52:49.376Z,27.73
2019-01-28T02:55:19.698Z,27.57
2019-01-28T02:57:49.242Z,29.30
2019-01-28T03:00:20.806Z,27.73
2019-01-28T03:02:50.411Z,27.23
2019-01-28T03:05:20.716Z,27.97
2019-01-28T03:07:50.330Z,28.07
2019-01-28T03:10:21.811Z,28.03
2019-01-28T03:12:51.756Z,26.73
2019-01-28T03:15:21.547Z,26.10
2019-01-28T03:17:51.108Z,26.53
2019-01-28T03:20:21.190Z,24.57
2019-01-28T03:22:51.040Z,28.70
2019-01-28T03:25:21.120Z,27.07
2019-01-28T03:27:50.516Z,25.87
2019-01-28T03:30:21.303Z,29.40
2019-01-28T03:32:50.786Z,41.50
2019-01-28T03:35:20.584Z,70.67
2019-01-28T03:37:50.410Z,67.80
2019-01-28T03:40:21.334Z,64.90
2019-01-28T03:42:51.438Z,29.07
2019-01-28T03:45:22.340Z,30.93
2019-01-28T03:47:52.010Z,32.43
2019-01-28T03:50:21.627Z,38.83
2019-01-28T03:52:51.523Z,43.43
2019-01-28T03:55:21.033Z,34.30
2019-01-28T03:57:50.479Z,46.30
2019-01-28T04:00:22.304Z,35.10
2019-01-28T04:02:52.052Z,32.40
2019-01-28T04:05:22.395Z,41.97
2019-01-28T04:07:52.044Z,45.10
2019-01-28T04:10:23.554Z,52.60
2019-01-28T04:12:53.096Z,36.23
2019-01-28T04:15:23.987Z,29.60
2019-01-28T04:17:53.863Z,32.70
2019-01-28T04:20:25.237Z,33.00
2019-01-28T04:22:55.195Z,32.30
2019-01-28T04:25:24.726Z,37.37
2019-01-28T04:27:54.458Z,31.17
2019-01-28T04:30:25.332Z,42.13
2019-01-28T04:32:54.811Z,37.37
2019-01-28T04:35:24.510Z,34.67
2019-01-28T04:37:54.118Z,38.23
2019-01-28T04:40:23.594Z,51.90
2019-01-28T04:42:53.311Z,44.97
2019-01-28T04:45:22.699Z,41.03
2019-01-28T04:47:52.511Z,56.57
2019-01-28T04:50:22.433Z,65.27
2019-01-28T04:52:51.976Z,43.50
2019-01-28T04:55:21.782Z,50.23
2019-01-28T04:57:51.344Z,50.73
2019-01-28T05:00:22.700Z,42.70
2019-01-28T05:02:52.200Z,27.20
2019-01-28T05:05:22.098Z,25.80
2019-01-28T05:07:51.601Z,34.13
2019-01-28T05:10:21.628Z,56.90
2019-01-28T05:12:51.460Z,35.07
2019-01-28T05:15:21.457Z,27.93
2019-01-28T05:17:51.281Z,27.43
2019-01-28T05:20:21.793Z,49.07
2019-01-28T05:22:51.502Z,34.53
2019-01-28T05:25:21.331Z,41.23
2019-01-28T05:27:53.153Z,46.27
2019-01-28T05:30:24.254Z,50.03
2019-01-28T05:32:54.235Z,50.67
2019-01-28T05:35:24.001Z,56.87
2019-01-28T05:37:54.050Z,55.00
2019-01-28T05:40:24.834Z,44.93
2019-01-28T05:42:54.712Z,34.43
2019-01-28T05:45:25.725Z,112.57
2019-01-28T05:47:55.280Z,61.43
2019-01-28T05:50:24.904Z,70.53
2019-01-28T05:52:54.299Z,44.13
2019-01-28T05:55:23.803Z,39.93
2019-01-28T05:57:53.751Z,31.70
2019-01-28T06:00:31.130Z,31.40
2019-01-28T06:03:00.793Z,31.27
2019-01-28T06:05:30.391Z,31.20
2019-01-28T06:08:00.159Z,35.00
2019-01-28T06:10:30.021Z,40.23
2019-01-28T06:12:59.718Z,40.50
2019-01-28T06:15:29.338Z,31.47
2019-01-28T06:17:58.927Z,35.90
2019-01-28T06:20:28.860Z,42.47
2019-01-28T06:22:58.346Z,49.67
2019-01-28T06:25:28.077Z,50.53
2019-01-28T06:27:57.706Z,47.13
2019-01-28T06:30:29.086Z,46.37
2019-01-28T06:32:58.486Z,54.67
2019-01-28T06:35:27.891Z,59.60
2019-01-28T06:37:57.810Z,55.60
2019-01-28T06:40:30.112Z,64.43
2019-01-28T06:42:59.815Z,71.23
2019-01-28T06:45:29.434Z,60.87
2019-01-28T06:47:59.333Z,66.03
2019-01-28T06:50:29.093Z,59.17
2019-01-28T06:52:58.979Z,49.40
2019-01-28T06:55:28.765Z,32.80
2019-01-28T06:57:58.348Z,28.87
2019-01-28T07:00:46.218Z,33.43
2019-01-28T07:03:16.090Z,66.97
2019-01-28T07:05:45.930Z,71.33
2019-01-28T07:08:15.756Z,67.47
2019-01-28T07:10:45.331Z,57.23
2019-01-28T07:13:15.187Z,43.93
2019-01-28T07:15:44.984Z,36.37
2019-01-28T07:32:28.534Z,54.40
2019-01-28T07:34:58.162Z,38.50
2019-01-28T07:37:27.871Z,41.10
2019-01-28T07:39:57.473Z,36.20
2019-01-28T07:42:27.204Z,39.83
2019-01-28T07:44:56.691Z,37.50
2019-01-28T07:47:26.586Z,31.77
2019-01-28T07:49:56.023Z,29.77
2019-01-28T07:52:25.443Z,29.97
2019-01-28T07:54:55.204Z,30.83
2019-01-28T07:57:25.001Z,40.43
2019-01-28T07:59:54.407Z,90.77
2019-01-28T08:02:24.205Z,90.60
2019-01-28T08:04:53.945Z,102.67
2019-01-28T08:07:23.564Z,140.40
2019-01-28T08:09:53.139Z,109.10
2019-01-28T08:12:23.007Z,152.63
2019-01-28T08:14:52.748Z,118.70
2019-01-28T08:17:22.357Z,93.80
2019-01-28T08:19:51.884Z,80.67
2019-01-28T08:22:21.686Z,62.53
2019-01-28T08:24:51.086Z,54.43
2019-01-28T08:27:20.900Z,54.07
2019-01-28T08:29:50.396Z,52.37
2019-01-28T08:32:20.029Z,162.60
2019-01-28T08:34:49.715Z,55.37
2019-01-28T08:37:19.301Z,45.97
2019-01-28T08:39:48.810Z,36.77
2019-01-28T08:42:18.726Z,40.80
2019-01-28T08:44:48.352Z,43.47
2019-01-28T08:47:17.922Z,47.73
2019-01-28T08:49:47.769Z,43.23
2019-01-28T08:52:17.431Z,57.30
2019-01-28T08:54:47.204Z,54.97
2019-01-28T08:57:16.972Z,47.77
2019-01-28T08:59:46.576Z,39.63
2019-01-28T09:02:15.980Z,34.90
2019-01-28T09:04:45.775Z,58.60
2019-01-28T09:07:15.726Z,50.77
2019-01-28T09:09:45.524Z,39.33
2019-01-28T09:12:15.094Z,36.10
2019-01-28T09:14:45.004Z,33.37
2019-01-28T09:17:14.491Z,41.70
2019-01-28T09:19:44.159Z,38.03
2019-01-28T09:22:13.747Z,36.83
2019-01-28T09:24:43.240Z,40.10
2019-01-28T09:27:12.809Z,38.73
2019-01-28T09:29:42.400Z,42.23
2019-01-28T09:32:11.956Z,40.30
2019-01-28T09:34:41.356Z,42.73
2019-01-28T09:37:14.243Z,35.87
2019-01-28T09:39:43.835Z,30.97
2019-01-28T09:42:13.393Z,34.30
2019-01-28T09:44:42.837Z,37.23
2019-01-28T09:47:12.282Z,36.60
2019-01-28T09:49:41.792Z,31.77
2019-01-28T09:52:12.631Z,33.23
2019-01-28T09:54:43.611Z,32.80
2019-01-28T09:57:13.212Z,33.97
2019-01-28T09:59:42.927Z,39.60
2019-01-28T10:02:12.791Z,50.80
2019-01-28T10:04:42.413Z,34.37
2019-01-28T10:07:13.048Z,32.83
2019-01-28T10:09:42.553Z,33.80
2019-01-28T10:12:12.141Z,31.47
2019-01-28T10:14:44.254Z,32.10
2019-01-28T10:17:14.462Z,34.73
2019-01-28T10:19:44.006Z,34.50
2019-01-28T10:22:13.807Z,33.33
2019-01-28T10:24:43.497Z,32.77
2019-01-28T10:27:12.928Z,38.13
2019-01-28T10:29:42.535Z,35.27
2019-01-28T10:32:13.805Z,36.83
2019-01-28T10:34:43.408Z,40.20
2019-01-28T10:37:13.038Z,36.77
2019-01-28T10:39:42.900Z,43.07
2019-01-28T10:42:12.505Z,46.20
2019-01-28T10:44:42.019Z,37.97
2019-01-28T10:47:11.860Z,38.70
2019-01-28T10:49:41.351Z,47.87
2019-01-28T10:52:11.255Z,52.97
2019-01-28T10:54:40.905Z,48.50
2019-01-28T10:57:10.709Z,35.00
2019-01-28T10:59:40.090Z,40.90
2019-01-28T11:02:10.530Z,39.40
2019-01-28T11:04:40.078Z,35.60
2019-01-28T11:07:09.568Z,96.27
2019-01-28T11:09:39.222Z,48.10
2019-01-28T11:12:08.833Z,42.67
2019-01-28T11:14:38.286Z,34.87
2019-01-28T11:17:08.184Z,41.87
2019-01-28T11:19:37.987Z,37.17
2019-01-28T11:22:07.374Z,39.03
2019-01-28T11:24:37.457Z,35.87
2019-01-28T11:27:06.964Z,40.33
2019-01-28T11:29:36.458Z,39.07
2019-01-28T11:32:06.115Z,35.20
2019-01-28T11:34:35.582Z,39.67
2019-01-28T11:37:05.400Z,39.50
2019-01-28T11:39:35.101Z,38.13
2019-01-28T11:42:04.846Z,37.73
2019-01-28T11:44:34.715Z,51.77
2019-01-28T11:47:04.184Z,52.70
2019-01-28T11:49:33.931Z,44.57
2019-01-28T11:52:03.369Z,81.57
2019-01-28T11:54:33.080Z,52.30
2019-01-28T11:57:02.681Z,45.73
2019-01-28T11:59:32.164Z,47.83
2019-01-28T12:02:01.771Z,38.93
2019-01-28T12:04:31.172Z,37.90
2019-01-28T12:07:00.930Z,39.57
2019-01-28T12:09:30.417Z,39.33
2019-01-28T12:12:00.145Z,39.50
2019-01-28T12:14:29.994Z,42.50
2019-01-28T12:16:59.517Z,43.30
2019-01-28T12:19:29.052Z,46.00
2019-01-28T12:21:59.002Z,50.07
2019-01-28T12:24:28.506Z,38.97
2019-01-28T12:26:58.118Z,38.83
2019-01-28T12:29:27.620Z,41.10
2019-01-28T12:31:57.185Z,40.13
2019-01-28T12:34:26.935Z,40.03
2019-01-28T12:36:56.423Z,37.27
2019-01-28T12:39:26.200Z,37.10
2019-01-28T12:41:55.653Z,38.70
2019-01-28T12:44:25.458Z,35.07
2019-01-28T12:46:54.946Z,37.77
2019-01-28T12:49:24.351Z,37.17
2019-01-28T12:51:53.979Z,62.07
2019-01-28T12:54:23.555Z,82.60
2019-01-28T12:56:53.002Z,48.47
2019-01-28T12:59:22.593Z,57.67
2019-01-28T13:01:52.115Z,51.90
2019-01-28T13:04:21.777Z,55.73
2019-01-28T13:06:51.436Z,57.67
2019-01-28T13:09:20.945Z,46.97
2019-01-28T13:11:50.783Z,46.97
2019-01-28T13:14:20.499Z,44.93
2019-01-28T13:16:49.913Z,46.27
2019-01-28T13:19:19.786Z,59.40
2019-01-28T13:21:49.525Z,49.20
2019-01-28T13:24:18.961Z,41.20
2019-01-28T13:26:48.379Z,41.07
2019-01-28T13:29:17.857Z,41.23
2019-01-28T13:31:47.531Z,39.90
2019-01-28T13:34:17.094Z,39.73
2019-01-28T13:36:47.073Z,40.47
2019-01-28T13:39:17.692Z,39.60
2019-01-28T13:41:47.312Z,38.40
2019-01-28T13:44:17.120Z,40.63
2019-01-28T13:46:46.838Z,39.83
2019-01-28T13:49:16.439Z,39.87
2019-01-28T13:51:45.940Z,38.53
2019-01-28T13:54:15.446Z,36.83
2019-01-28T13:56:44.979Z,44.20
2019-01-28T13:59:16.485Z,40.30
2019-01-28T14:01:46.081Z,37.03
2019-01-28T14:04:15.627Z,39.90
2019-01-28T14:06:45.128Z,39.97
2019-01-28T14:09:14.723Z,38.30
2019-01-28T14:11:44.207Z,45.57
2019-01-28T14:14:14.049Z,44.20
2019-01-28T14:16:43.662Z,42.67
2019-01-28T14:19:13.354Z,45.60
2019-01-28T14:21:43.197Z,40.70
2019-01-28T14:24:13.867Z,47.57
2019-01-28T14:26:43.652Z,43.67
2019-01-28T14:29:13.627Z,42.23
2019-01-28T14:31:43.337Z,44.47
2019-01-28T14:34:13.044Z,52.60
2019-01-28T14:36:42.452Z,54.47
2019-01-28T14:39:14.257Z,69.73
2019-01-28T14:41:43.891Z,56.33
2019-01-28T14:44:13.556Z,57.97
2019-01-28T14:46:43.327Z,61.87
2019-01-28T14:49:12.886Z,51.87
2019-01-28T14:51:43.033Z,56.13
2019-01-28T14:54:12.930Z,52.70
2019-01-28T14:56:42.899Z,51.20
2019-01-28T14:59:12.455Z,60.27
2019-01-28T15:01:42.230Z,49.13
2019-01-28T15:04:11.771Z,51.67
2019-01-28T15:06:41.746Z,48.40
2019-01-28T15:09:12.864Z,50.40
2019-01-28T15:11:42.374Z,48.23
2019-01-28T15:14:11.886Z,46.93
2019-01-28T15:16:41.673Z,48.70
2019-01-28T15:19:14.792Z,54.67
2019-01-28T15:21:44.305Z,88.33
2019-01-28T15:24:13.724Z,62.33
2019-01-28T15:26:43.256Z,59.57
2019-01-28T15:29:12.765Z,64.70
2019-01-28T15:31:42.454Z,86.57
2019-01-28T15:34:12.319Z,83.17
2019-01-28T15:36:41.829Z,118.73
2019-01-28T15:39:11.963Z,110.43
2019-01-28T15:41:41.772Z,120.70
2019-01-28T15:44:11.579Z,171.47
2019-01-28T15:46:41.313Z,98.50
2019-01-28T15:49:11.193Z,76.30
2019-01-28T15:51:40.756Z,76.37
2019-01-28T15:54:10.607Z,64.93
2019-01-28T15:56:40.370Z,62.37
2019-01-28T15:59:10.230Z,58.17
2019-01-28T16:01:39.969Z,64.40
2019-01-28T16:04:09.479Z,64.93
2019-01-28T16:06:39.004Z,133.03
2019-01-28T16:09:10.345Z,115.37
2019-01-28T16:11:39.939Z,114.90
2019-01-28T16:14:09.446Z,111.17
2019-01-28T16:16:39.154Z,93.10
2019-01-28T16:19:09.370Z,77.87
2019-01-28T16:21:39.309Z,71.33
2019-01-28T16:24:13.718Z,58.97
2019-01-28T16:26:43.243Z,117.53
2019-01-28T16:29:13.196Z,79.90
2019-01-28T16:31:43.155Z,63.27
2019-01-28T16:34:12.966Z,69.93
2019-01-28T16:36:44.458Z,55.33
2019-01-28T16:39:14.103Z,61.23
2019-01-28T16:41:44.226Z,55.47
2019-01-28T16:44:13.926Z,72.77
2019-01-28T16:46:43.839Z,67.77
2019-01-28T16:49:15.089Z,74.90
2019-01-28T16:51:46.908Z,79.37
2019-01-28T16:54:16.528Z,63.27
2019-01-28T16:56:46.330Z,49.77
2019-01-28T16:59:16.098Z,47.70
2019-01-28T17:01:48.397Z,89.33
2019-01-28T17:04:20.832Z,88.40
2019-01-28T17:06:50.322Z,74.40
2019-01-28T17:09:20.065Z,76.87
2019-01-28T17:11:49.867Z,70.40
2019-01-28T17:14:19.856Z,79.03
2019-01-28T17:16:49.807Z,79.53
2019-01-28T17:19:19.433Z,69.07
2019-01-28T17:21:48.947Z,78.93
2019-01-28T17:24:18.459Z,80.93
2019-01-28T17:26:50.603Z,69.60
2019-01-28T17:29:20.388Z,71.17
2019-01-28T17:31:49.956Z,93.43
2019-01-28T17:34:19.576Z,88.07
2019-01-28T17:36:49.379Z,61.87
2019-01-28T17:39:18.798Z,60.53
2019-01-28T17:41:48.329Z,57.93
2019-01-28T17:44:18.189Z,69.13
2019-01-28T17:46:47.797Z,93.63
2019-01-28T17:49:17.651Z,84.20
2019-01-28T17:51:47.518Z,83.73
2019-01-28T17:54:17.055Z,101.80
2019-01-28T17:56:46.994Z,73.20
2019-01-28T17:59:17.379Z,71.20
2019-01-28T18:01:46.883Z,70.27
2019-01-28T18:04:16.617Z,69.17
2019-01-28T18:06:46.170Z,62.20
2019-01-28T18:09:15.962Z,65.40
2019-01-28T18:11:45.840Z,63.60
2019-01-28T18:14:15.811Z,65.13
2019-01-28T18:16:45.620Z,65.00
2019-01-28T18:19:15.478Z,72.13
2019-01-28T18:21:45.277Z,82.07
2019-01-28T18:24:15.129Z,61.93
2019-01-28T18:26:44.982Z,56.03
2019-01-28T18:29:14.517Z,61.53
2019-01-28T18:31:44.410Z,69.40
2019-01-28T18:34:14.183Z,62.17
2019-01-28T18:36:44.026Z,56.30
2019-01-28T18:39:14.978Z,55.33
2019-01-28T18:41:44.701Z,90.70
2019-01-28T18:44:16.389Z,76.27
2019-01-28T18:46:46.141Z,62.67
2019-01-28T18:49:16.515Z,69.53
2019-01-28T18:51:46.055Z,75.97
2019-01-28T18:54:15.591Z,64.50
2019-01-28T18:56:45.434Z,60.97
2019-01-28T18:59:15.127Z,63.17
2019-01-28T19:01:44.667Z,68.27
2019-01-28T19:04:14.462Z,65.33
2019-01-28T19:07:09.371Z,52.97
2019-01-28T19:09:43.681Z,54.63
2019-01-28T19:12:30.686Z,53.43
2019-01-28T19:15:37.487Z,50.33
2019-01-28T19:18:17.331Z,62.70
2019-01-28T19:21:08.117Z,82.10
2019-01-28T19:23:37.100Z,81.67
2019-01-28T19:26:06.987Z,43.07
2019-01-28T19:28:39.922Z,43.10
2019-01-28T19:31:09.839Z,49.60
2019-01-28T19:33:40.842Z,44.50
2019-01-28T19:36:10.465Z,42.30
2019-01-28T19:38:40.271Z,48.17
2019-01-28T19:41:12.498Z,55.00
2019-01-28T19:43:42.408Z,51.37
2019-01-28T19:46:12.058Z,62.53
2019-01-28T19:48:41.860Z,75.83
2019-01-28T19:51:15.742Z,66.70
2019-01-28T19:53:42.914Z,64.73
2019-01-28T19:56:12.745Z,62.13
2019-01-28T19:58:43.683Z,56.40
2019-01-28T20:01:13.602Z,59.27
2019-01-28T20:03:43.396Z,56.40
2019-01-28T20:06:13.214Z,54.90
2019-01-28T20:08:44.855Z,54.83
2019-01-28T20:11:15.034Z,55.57
2019-01-28T20:13:44.582Z,53.30
2019-01-28T20:16:14.539Z,51.07
2019-01-28T20:18:44.094Z,62.03
2019-01-28T20:21:14.039Z,54.20
2019-01-28T20:23:43.914Z,55.17
2019-01-28T20:26:13.474Z,54.77
2019-01-28T20:28:43.045Z,55.07
2019-01-28T20:31:12.981Z,53.77
2019-01-28T20:33:42.747Z,52.77
2019-01-28T20:36:12.766Z,55.40
2019-01-28T20:38:42.572Z,56.17
2019-01-28T20:41:18.692Z,53.13
2019-01-28T20:43:57.419Z,61.00
2019-01-28T20:46:26.781Z,56.53
2019-01-28T20:48:56.321Z,50.70
2019-01-28T20:51:32.260Z,52.73
2019-01-28T20:53:57.665Z,58.30
2019-01-28T20:56:27.539Z,54.63
2019-01-28T20:58:57.116Z,49.13
2019-01-28T21:01:26.648Z,52.07
2019-01-28T21:03:56.430Z,50.90
2019-01-28T21:06:26.269Z,52.03
2019-01-28T21:08:55.799Z,58.10
2019-01-28T21:11:27.933Z,61.23
2019-01-28T21:13:57.414Z,64.43
2019-01-28T21:16:27.096Z,63.63
2019-01-28T21:18:56.895Z,66.23
2019-01-28T21:21:26.621Z,79.80
2019-01-28T21:23:56.127Z,58.17
2019-01-28T21:26:25.657Z,58.47
2019-01-28T21:28:55.151Z,58.20
2019-01-28T21:31:28.011Z,65.73
2019-01-28T21:33:57.521Z,65.07
2019-01-28T21:36:34.094Z,63.13
2019-01-28T21:39:05.286Z,60.13
2019-01-28T21:41:34.947Z,60.70
2019-01-28T21:44:04.845Z,59.50
2019-01-28T21:46:34.716Z,56.10
2019-01-28T21:49:04.645Z,72.00
2019-01-28T21:51:34.333Z,62.80
2019-01-28T21:54:04.457Z,62.40
2019-01-28T21:56:34.270Z,65.87
2019-01-28T21:59:03.884Z,63.93
2019-01-28T22:01:33.492Z,61.73
2019-01-28T22:04:03.449Z,62.07
2019-01-28T22:06:32.948Z,58.53
2019-01-28T22:09:02.718Z,57.67
2019-01-28T22:11:32.422Z,65.33
2019-01-28T22:14:02.025Z,61.70
2019-01-28T22:16:31.882Z,65.70
2019-01-28T22:19:01.763Z,64.67
2019-01-28T22:21:31.272Z,63.93
2019-01-28T22:24:01.162Z,63.87
2019-01-28T22:26:30.971Z,61.13
2019-01-28T22:29:01.304Z,64.83
2019-01-28T22:31:30.800Z,63.30
2019-01-28T22:34:00.676Z,60.90
2019-01-28T22:36:30.441Z,89.30
2019-01-28T22:39:00.646Z,85.63
2019-01-28T22:41:30.812Z,73.77
2019-01-28T22:44:00.595Z,63.83
2019-01-28T22:46:30.443Z,62.57
2019-01-28T22:49:00.053Z,63.33
2019-01-28T22:51:29.754Z,68.20
2019-01-28T22:53:59.264Z,63.37
2019-01-28T22:56:28.963Z,67.57
2019-01-28T22:58:58.473Z,64.37
2019-01-28T23:01:31.811Z,64.07
2019-01-28T23:04:01.644Z,62.43
2019-01-28T23:06:31.262Z,65.10
2019-01-28T23:09:01.166Z,63.97
2019-01-28T23:11:30.994Z,67.83
2019-01-28T23:14:00.919Z,70.00
2019-01-28T23:16:30.795Z,65.83
2019-01-28T23:19:00.549Z,59.60
2019-01-28T23:21:30.055Z,59.93
2019-01-28T23:23:59.576Z,57.57
2019-01-28T23:26:29.367Z,61.30
2019-01-28T23:28:58.879Z,65.13
2019-01-28T23:31:28.880Z,61.30
2019-01-28T23:33:58.484Z,60.90
2019-01-28T23:36:28.404Z,58.00
2019-01-28T23:38:58.112Z,63.40
2019-01-28T23:41:27.719Z,73.13
2019-01-28T23:43:57.407Z,70.93
2019-01-28T23:46:27.303Z,68.00
2019-01-28T23:48:57.036Z,73.50
2019-01-28T23:51:26.832Z,63.17
2019-01-28T23:53:56.536Z,69.00
2019-01-28T23:56:26.060Z,65.83
2019-01-28T23:58:55.988Z,64.57
